Pikeville, Tennessee
Current Conditions -  °F | °C
As of 9:53 PM on Sunday 23 Nov 2014 (Local Time) from KCSV Reporting Station
Overcast Overcast  
Wind Chill: 61°   Ceiling: 2900
Heat Index: 61°   Visibility: 10mi
Dew Point: 54°   Wind: 9mph
Humidity: 78%   Direction: 200°SSW
Pressure: 29.57"   Gusts: 21mph
Location:  35.61°N, 85.19°W
Report Text: KCSV 240353Z AUTO 20008G18KT 160V260 10SM FEW012 SCT021 OVC029 16/12 A2957 RMK AO2 SLP000 T01610122
Loading
Personal Weather Stations






























Interactive Weather Map New forecast layout! Learn more

10-Day Weather Forecast

Advertisements
Track Severe Weather on mobile